createdAt,value
2019-01-22T00:00:53.520Z,43.00
2019-01-22T00:03:22.826Z,43.20
2019-01-22T00:05:52.119Z,42.70
2019-01-22T00:08:21.431Z,42.90
2019-01-22T00:10:51.488Z,43.40
2019-01-22T00:13:20.795Z,42.90
2019-01-22T00:15:50.399Z,42.50
2019-01-22T00:18:19.712Z,42.50
2019-01-22T00:20:49.014Z,42.70
2019-01-22T00:23:18.312Z,43.40
2019-01-22T00:25:47.622Z,43.60
2019-01-22T00:28:17.213Z,43.20
2019-01-22T00:30:46.520Z,43.30
2019-01-22T00:33:15.858Z,42.30
2019-01-22T00:35:45.212Z,42.40
2019-01-22T00:38:14.695Z,42.70
2019-01-22T00:40:44.006Z,43.60
2019-01-22T00:43:13.328Z,44.60
2019-01-22T00:45:42.630Z,44.80
2019-01-22T00:48:11.939Z,45.00
2019-01-22T00:50:41.602Z,45.70
2019-01-22T00:53:10.907Z,45.90
2019-01-22T00:55:40.195Z,45.80
2019-01-22T00:58:09.516Z,46.80
2019-01-22T01:00:38.809Z,46.30
2019-01-22T01:03:08.168Z,46.00
2019-01-22T01:05:37.464Z,46.10
2019-01-22T01:08:06.944Z,46.30
2019-01-22T01:10:36.738Z,45.90
2019-01-22T01:13:06.110Z,44.70
2019-01-22T01:15:35.773Z,44.90
2019-01-22T01:18:05.268Z,44.30
2019-01-22T01:20:34.882Z,44.20
2019-01-22T01:23:04.186Z,44.80
2019-01-22T01:25:33.484Z,45.10
2019-01-22T01:28:02.788Z,44.60
2019-01-22T01:30:32.206Z,44.20
2019-01-22T01:33:01.615Z,43.70
2019-01-22T01:35:30.936Z,43.60
2019-01-22T01:38:00.235Z,44.80
2019-01-22T01:40:29.615Z,44.20
2019-01-22T01:42:58.916Z,44.30
2019-01-22T01:45:28.504Z,43.60
2019-01-22T01:47:57.805Z,43.80
2019-01-22T01:50:27.407Z,43.40
2019-01-22T01:52:56.708Z,43.00
2019-01-22T01:55:26.187Z,42.70
2019-01-22T01:57:55.487Z,43.00
2019-01-22T02:00:24.790Z,42.30
2019-01-22T02:02:54.078Z,42.80
2019-01-22T02:05:23.397Z,42.70
2019-01-22T02:07:52.686Z,42.50
2019-01-22T02:10:23.040Z,42.10
2019-01-22T02:13:01.780Z,42.20
2019-01-22T02:15:50.995Z,42.60
2019-01-22T02:18:26.300Z,41.90
2019-01-22T02:21:19.858Z,41.40
2019-01-22T02:24:16.018Z,42.60
2019-01-22T02:26:57.458Z,42.60
2019-01-22T02:29:29.833Z,43.00
2019-01-22T02:32:10.748Z,42.60
2019-01-22T02:34:51.915Z,41.50
2019-01-22T02:37:27.026Z,41.70
2019-01-22T02:40:05.225Z,42.80
2019-01-22T02:42:40.548Z,41.80
2019-01-22T02:45:12.955Z,41.90
2019-01-22T02:47:48.152Z,42.60
2019-01-22T02:50:30.127Z,43.30
2019-01-22T02:53:05.068Z,43.80
2019-01-22T02:55:37.453Z,43.50
2019-01-22T02:58:16.043Z,43.60
2019-01-22T03:00:54.294Z,43.70
2019-01-22T03:03:32.845Z,43.20
2019-01-22T03:06:23.371Z,43.60
2019-01-22T03:09:19.946Z,43.60
2019-01-22T03:12:10.196Z,44.10
2019-01-22T03:15:16.027Z,44.60
2019-01-22T03:17:53.967Z,44.90
2019-01-22T03:20:41.755Z,44.90
2019-01-22T03:23:23.027Z,44.60
2019-01-22T03:26:10.516Z,43.80
2019-01-22T03:29:00.803Z,42.90
2019-01-22T03:31:35.790Z,43.60
2019-01-22T03:34:17.012Z,44.00
2019-01-22T03:36:55.107Z,43.60
2019-01-22T03:39:30.235Z,42.80
2019-01-22T03:42:08.567Z,42.50
2019-01-22T03:44:56.460Z,43.40
2019-01-22T03:47:28.852Z,44.10
2019-01-22T03:50:16.118Z,43.00
2019-01-22T03:52:57.794Z,43.10
2019-01-22T03:56:00.436Z,41.80
2019-01-22T03:58:29.728Z,41.90
2019-01-22T04:01:02.566Z,41.50
2019-01-22T04:03:31.880Z,41.80
2019-01-22T04:06:02.819Z,42.50
2019-01-22T04:08:32.124Z,41.90
2019-01-22T04:11:02.952Z,42.40
2019-01-22T04:13:32.254Z,42.30
2019-01-22T04:16:01.627Z,43.40
2019-01-22T04:18:31.208Z,42.30
2019-01-22T04:21:00.812Z,42.00
2019-01-22T04:23:33.179Z,41.00
2019-01-22T04:26:23.466Z,41.60
2019-01-22T04:29:07.760Z,42.30
2019-01-22T04:31:40.162Z,42.80
2019-01-22T04:34:27.316Z,43.10
2019-01-22T04:37:16.188Z,42.80
2019-01-22T04:39:57.314Z,43.50
2019-01-22T04:42:49.476Z,43.30
2019-01-22T04:45:36.587Z,43.80
2019-01-22T04:48:17.539Z,45.40
2019-01-22T04:50:56.219Z,46.90
2019-01-22T04:53:48.490Z,47.00
2019-01-22T04:56:42.376Z,47.00
2019-01-22T04:59:14.743Z,47.10
2019-01-22T05:01:56.039Z,48.10
2019-01-22T05:04:30.851Z,48.70
2019-01-22T05:07:14.552Z,49.00
2019-01-22T05:10:05.488Z,50.80
2019-01-22T05:12:46.859Z,49.80
2019-01-22T05:15:43.512Z,50.00
2019-01-22T05:18:24.899Z,50.60
2019-01-22T05:21:29.372Z,49.50
2019-01-22T05:24:18.628Z,49.30
2019-01-22T05:27:08.162Z,48.60
2019-01-22T05:29:43.590Z,48.70
2019-01-22T05:32:33.579Z,49.20
2019-01-22T05:35:28.601Z,49.80
2019-01-22T05:38:10.165Z,50.90
2019-01-22T05:41:00.966Z,50.70
2019-01-22T05:43:48.243Z,52.20
2019-01-22T05:46:20.620Z,52.90
2019-01-22T05:48:53.234Z,52.70
2019-01-22T05:51:28.615Z,52.20
2019-01-22T05:54:25.111Z,51.70
2019-01-22T05:56:55.842Z,51.30
2019-01-22T05:59:43.584Z,51.30
2019-01-22T06:02:14.836Z,51.30
2019-01-22T06:05:10.075Z,50.60
2019-01-22T06:07:45.250Z,74.40
2019-01-22T06:10:35.916Z,77.10
2019-01-22T06:13:14.436Z,75.90
2019-01-22T06:15:52.623Z,68.00
2019-01-22T06:18:34.403Z,58.30
2019-01-22T06:21:38.464Z,56.10
2019-01-22T06:24:22.514Z,58.00
2019-01-22T06:27:03.743Z,61.40
2019-01-22T06:29:52.515Z,65.00
2019-01-22T06:32:30.766Z,67.70
2019-01-22T06:35:12.337Z,69.80
2019-01-22T06:38:01.183Z,70.00
2019-01-22T06:40:51.542Z,71.20
2019-01-22T06:43:43.556Z,71.70
2019-01-22T06:46:24.614Z,71.80
2019-01-22T06:48:59.700Z,71.50
2019-01-22T06:51:38.071Z,71.50
2019-01-22T06:54:28.920Z,71.30
2019-01-22T06:57:18.000Z,70.90
2019-01-22T07:00:02.311Z,69.90
2019-01-22T07:02:43.526Z,68.80
2019-01-22T07:05:31.127Z,69.40
2019-01-22T07:08:06.491Z,70.60
2019-01-22T07:10:41.772Z,71.50
2019-01-22T07:13:26.113Z,72.60
2019-01-22T07:15:58.551Z,72.60
2019-01-22T07:18:55.226Z,72.30
2019-01-22T07:21:39.545Z,70.60
2019-01-22T07:24:14.453Z,70.00
2019-01-22T07:26:49.595Z,70.10
2019-01-22T07:29:31.048Z,70.20
2019-01-22T07:32:08.634Z,69.20
2019-01-22T07:34:46.520Z,67.80
2019-01-22T07:37:21.781Z,67.00
2019-01-22T07:40:00.392Z,68.60
2019-01-22T07:42:55.315Z,69.60
2019-01-22T07:46:01.018Z,70.10
2019-01-22T07:48:36.325Z,69.70
2019-01-22T07:51:11.514Z,69.00
2019-01-22T07:54:01.279Z,69.10
2019-01-22T07:56:50.187Z,68.70
2019-01-22T07:59:22.616Z,69.00
2019-01-22T08:01:58.159Z,68.50
2019-01-22T08:04:32.203Z,68.00
2019-01-22T08:07:18.385Z,69.10
2019-01-22T08:10:16.472Z,69.80
2019-01-22T08:12:54.807Z,70.30
2019-01-22T08:15:30.131Z,69.40
2019-01-22T08:18:14.975Z,68.80
2019-01-22T08:21:07.988Z,67.90
2019-01-22T08:23:40.358Z,67.70
2019-01-22T08:26:30.992Z,68.10
2019-01-22T08:29:15.061Z,68.00
2019-01-22T08:31:56.015Z,68.20
2019-01-22T08:34:46.239Z,67.90
2019-01-22T08:37:24.464Z,68.30
2019-01-22T08:40:06.021Z,68.40
2019-01-22T08:42:58.247Z,67.80
2019-01-22T08:45:30.928Z,67.00
2019-01-22T08:48:24.342Z,66.60
2019-01-22T08:51:13.359Z,66.30
2019-01-22T08:53:51.974Z,64.20
2019-01-22T08:56:27.268Z,62.30
2019-01-22T08:59:05.942Z,61.80
2019-01-22T09:01:40.974Z,59.90
2019-01-22T09:04:22.459Z,59.20
2019-01-22T09:07:00.356Z,59.20
2019-01-22T09:10:04.618Z,59.10
2019-01-22T09:12:42.835Z,59.50
2019-01-22T09:15:31.839Z,58.60
2019-01-22T09:18:13.545Z,59.00
2019-01-22T09:20:52.163Z,59.70
2019-01-22T09:23:41.951Z,60.30
2019-01-22T09:26:26.112Z,60.10
2019-01-22T09:29:24.576Z,59.50
2019-01-22T09:32:05.592Z,59.30
2019-01-22T09:35:02.092Z,58.50
2019-01-22T09:37:32.945Z,58.60
2019-01-22T09:40:02.244Z,59.10
2019-01-22T09:42:31.554Z,58.50
2019-01-22T09:45:00.858Z,57.40
2019-01-22T09:47:30.158Z,57.20
2019-01-22T09:49:59.459Z,57.00
2019-01-22T09:52:28.776Z,56.80
2019-01-22T09:54:58.354Z,58.00
2019-01-22T09:57:27.663Z,58.30
2019-01-22T09:59:56.976Z,58.60
2019-01-22T10:02:26.276Z,59.80
2019-01-22T10:04:55.564Z,58.90
2019-01-22T10:07:24.871Z,58.40
2019-01-22T10:09:54.451Z,56.90
2019-01-22T10:12:23.754Z,56.50
2019-01-22T10:14:53.362Z,57.30
2019-01-22T10:17:23.067Z,56.10
2019-01-22T10:19:52.364Z,56.20
2019-01-22T10:22:21.676Z,56.30
2019-01-22T10:24:50.972Z,55.90
2019-01-22T10:27:20.274Z,55.90
2019-01-22T10:29:49.579Z,55.80
2019-01-22T10:32:18.880Z,55.50
2019-01-22T10:34:48.186Z,55.30
2019-01-22T10:37:17.484Z,55.30
2019-01-22T10:39:46.792Z,55.70
2019-01-22T10:42:16.383Z,56.30
2019-01-22T10:44:45.700Z,56.30
2019-01-22T10:47:14.988Z,56.00
2019-01-22T10:49:44.591Z,56.30
2019-01-22T10:52:14.134Z,57.20
2019-01-22T10:54:43.438Z,57.10
2019-01-22T10:57:12.744Z,56.20
2019-01-22T10:59:42.308Z,55.90
2019-01-22T11:02:12.020Z,54.80
2019-01-22T11:04:41.552Z,54.30
2019-01-22T11:07:10.858Z,53.40
2019-01-22T11:09:40.436Z,53.00
2019-01-22T11:12:09.746Z,54.60
2019-01-22T11:14:39.039Z,53.20
2019-01-22T11:17:08.330Z,53.20
2019-01-22T11:19:37.943Z,54.10
2019-01-22T11:22:07.265Z,54.60
2019-01-22T11:24:36.568Z,55.00
2019-01-22T11:27:05.850Z,54.10
2019-01-22T11:29:35.162Z,52.80
2019-01-22T11:32:04.801Z,52.00
2019-01-22T11:34:34.098Z,51.60
2019-01-22T11:37:03.400Z,51.40
2019-01-22T11:39:32.727Z,51.60
2019-01-22T11:42:02.012Z,52.10
2019-01-22T11:44:31.310Z,51.40
2019-01-22T11:47:00.609Z,51.00
2019-01-22T11:49:30.163Z,49.80
2019-01-22T11:51:59.488Z,50.90
2019-01-22T11:54:29.089Z,49.30
2019-01-22T11:56:58.403Z,49.40
2019-01-22T11:59:27.981Z,48.80
2019-01-22T12:01:57.278Z,48.20
2019-01-22T12:04:26.595Z,47.60
2019-01-22T12:06:55.883Z,47.00
2019-01-22T12:09:25.998Z,45.90
2019-01-22T12:11:55.315Z,45.80
2019-01-22T12:14:24.624Z,45.10
2019-01-22T12:16:53.916Z,45.00
2019-01-22T12:19:24.667Z,47.30
2019-01-22T12:21:53.965Z,47.30
2019-01-22T12:24:23.653Z,46.20
2019-01-22T12:26:52.964Z,46.10
2019-01-22T12:29:22.258Z,46.70
2019-01-22T12:31:51.566Z,46.70
2019-01-22T12:34:20.859Z,46.30
2019-01-22T12:36:50.182Z,46.90
2019-01-22T12:39:19.472Z,46.40
2019-01-22T12:41:49.444Z,45.50
2019-01-22T12:44:18.741Z,45.80
2019-01-22T12:46:48.047Z,46.60
2019-01-22T12:49:17.679Z,45.70
2019-01-22T12:51:46.967Z,45.30
2019-01-22T12:54:16.275Z,44.70
2019-01-22T12:56:45.568Z,45.80
2019-01-22T12:59:14.874Z,46.20
2019-01-22T13:01:44.504Z,46.10
2019-01-22T13:04:13.808Z,46.40
2019-01-22T13:06:43.399Z,46.50
2019-01-22T13:09:12.728Z,48.00
2019-01-22T13:11:42.018Z,48.60
2019-01-22T13:14:16.286Z,48.10
2019-01-22T13:16:42.327Z,47.50
2019-01-22T13:19:11.647Z,46.50
2019-01-22T13:21:40.935Z,48.20
2019-01-22T13:24:10.241Z,47.70
2019-01-22T13:26:39.861Z,46.50
2019-01-22T13:29:09.151Z,47.80
2019-01-22T13:31:38.767Z,48.30
2019-01-22T13:34:08.122Z,48.20
2019-01-22T13:36:37.423Z,47.40
2019-01-22T13:39:08.657Z,47.50
2019-01-22T13:41:37.951Z,48.40
2019-01-22T13:44:07.260Z,49.30
2019-01-22T13:46:36.551Z,49.00
2019-01-22T13:49:05.856Z,49.50
2019-01-22T13:51:35.425Z,49.00
2019-01-22T13:54:05.240Z,49.90
2019-01-22T13:56:34.543Z,51.00
2019-01-22T13:59:03.912Z,52.60
2019-01-22T14:01:33.202Z,53.00
2019-01-22T14:04:02.847Z,52.00
2019-01-22T14:06:32.135Z,51.10
2019-01-22T14:09:01.667Z,52.00
2019-01-22T14:11:30.965Z,52.60
2019-01-22T14:14:00.381Z,53.60
2019-01-22T14:16:29.688Z,52.90
2019-01-22T14:18:58.996Z,52.00
2019-01-22T14:21:28.568Z,53.00
2019-01-22T14:23:57.875Z,53.80
2019-01-22T14:26:27.167Z,53.60
2019-01-22T14:28:56.470Z,52.30
2019-01-22T14:31:25.775Z,53.00
2019-01-22T14:33:55.070Z,52.70
2019-01-22T14:36:24.350Z,52.40
2019-01-22T14:38:53.991Z,52.90
2019-01-22T14:41:23.279Z,53.10
2019-01-22T14:43:52.578Z,53.50
2019-01-22T14:46:22.103Z,53.20
2019-01-22T14:48:51.422Z,53.50
2019-01-22T14:51:20.717Z,52.40
2019-01-22T14:53:50.023Z,52.10
2019-01-22T14:56:19.336Z,52.00
2019-01-22T14:58:48.630Z,52.20
2019-01-22T15:01:17.923Z,53.60
2019-01-22T15:03:47.232Z,53.40
2019-01-22T15:06:16.536Z,53.80
2019-01-22T15:08:45.836Z,54.30
2019-01-22T15:11:15.163Z,54.00
2019-01-22T15:13:44.480Z,54.30
2019-01-22T15:16:14.513Z,54.50
2019-01-22T15:18:43.812Z,55.30
2019-01-22T15:21:13.127Z,55.00
2019-01-22T15:23:42.425Z,54.60
2019-01-22T15:26:11.963Z,54.00
2019-01-22T15:28:41.541Z,53.80
2019-01-22T15:31:10.844Z,54.00
2019-01-22T15:33:40.447Z,53.90
2019-01-22T15:36:10.048Z,53.00
2019-01-22T15:38:39.343Z,52.50
2019-01-22T15:41:08.656Z,53.30
2019-01-22T15:43:37.947Z,53.70
2019-01-22T15:46:07.308Z,53.30
2019-01-22T15:48:36.634Z,53.10
2019-01-22T15:51:06.011Z,53.90
2019-01-22T15:53:35.303Z,54.30
2019-01-22T15:56:05.056Z,55.00
2019-01-22T15:58:34.339Z,55.70
2019-01-22T16:01:03.649Z,54.90
2019-01-22T16:03:32.935Z,54.60
2019-01-22T16:06:02.260Z,54.70
2019-01-22T16:08:31.555Z,54.40
2019-01-22T16:11:00.851Z,54.10
2019-01-22T16:13:30.166Z,54.00
2019-01-22T16:15:59.454Z,54.20
2019-01-22T16:18:28.763Z,55.20
2019-01-22T16:20:58.050Z,54.20
2019-01-22T16:23:27.364Z,53.10
2019-01-22T16:25:56.918Z,53.00
2019-01-22T16:28:26.206Z,52.80
2019-01-22T16:30:55.528Z,52.40
2019-01-22T16:33:24.892Z,51.50
2019-01-22T16:35:54.295Z,50.90
2019-01-22T16:38:23.590Z,51.60
2019-01-22T16:40:52.994Z,50.90
2019-01-22T16:43:22.292Z,50.40
2019-01-22T16:45:51.579Z,49.90
2019-01-22T16:48:21.207Z,49.20
2019-01-22T16:50:50.492Z,49.20
2019-01-22T16:53:19.815Z,49.10
2019-01-22T16:55:49.086Z,48.60
2019-01-22T16:58:18.460Z,48.70
2019-01-22T17:00:47.746Z,48.80
2019-01-22T17:03:17.063Z,49.60
2019-01-22T17:05:47.668Z,49.50
2019-01-22T17:08:17.082Z,49.60
2019-01-22T17:10:46.404Z,49.30
2019-01-22T17:13:15.696Z,48.70
2019-01-22T17:15:44.992Z,48.70
2019-01-22T17:18:14.310Z,48.20
2019-01-22T17:20:47.741Z,47.70
2019-01-22T17:23:16.677Z,47.60
2019-01-22T17:25:45.603Z,47.10
2019-01-22T17:28:15.697Z,46.40
2019-01-22T17:30:45.090Z,46.00
2019-01-22T17:33:19.501Z,44.90
2019-01-22T17:35:48.896Z,44.10
2019-01-22T17:38:18.352Z,43.90
2019-01-22T17:40:47.740Z,44.00
2019-01-22T17:43:17.036Z,43.40
2019-01-22T17:45:46.339Z,43.10
2019-01-22T17:48:15.998Z,42.90
2019-01-22T17:50:45.300Z,42.80
2019-01-22T17:53:14.910Z,43.40
2019-01-22T17:55:44.224Z,43.00
2019-01-22T17:58:13.579Z,42.60
2019-01-22T18:00:42.887Z,40.40
2019-01-22T18:03:12.191Z,40.60
2019-01-22T18:05:41.490Z,41.40
2019-01-22T18:08:10.785Z,42.40
2019-01-22T18:10:40.079Z,42.40
2019-01-22T18:13:09.376Z,41.00
2019-01-22T18:15:38.667Z,41.40
2019-01-22T18:18:07.964Z,40.90
2019-01-22T18:20:37.275Z,40.90
2019-01-22T18:23:06.562Z,41.50
2019-01-22T18:25:35.912Z,41.40
2019-01-22T18:28:05.259Z,41.50
2019-01-22T18:30:34.826Z,41.60
2019-01-22T18:33:04.110Z,41.50
2019-01-22T18:35:38.164Z,41.60
2019-01-22T18:38:07.232Z,40.90
2019-01-22T18:40:36.828Z,40.30
2019-01-22T18:43:06.442Z,39.70
2019-01-22T18:45:35.755Z,39.70
2019-01-22T18:48:05.387Z,39.20
2019-01-22T18:50:34.690Z,39.50
2019-01-22T18:53:04.381Z,39.30
2019-01-22T18:55:33.673Z,39.50
2019-01-22T18:58:02.978Z,39.00
2019-01-22T19:00:32.275Z,39.50
2019-01-22T19:03:01.588Z,40.30
2019-01-22T19:05:31.179Z,39.70
2019-01-22T19:08:00.488Z,39.00
2019-01-22T19:10:29.779Z,38.30
2019-01-22T19:12:59.087Z,37.90
2019-01-22T19:15:28.423Z,36.70
2019-01-22T19:17:57.739Z,35.90
2019-01-22T19:20:29.230Z,35.90
2019-01-22T19:22:58.529Z,35.30
2019-01-22T19:25:29.159Z,35.10
2019-01-22T19:27:58.743Z,34.80
2019-01-22T19:30:30.543Z,34.30
2019-01-22T19:33:00.235Z,34.50
2019-01-22T19:35:29.592Z,34.00
2019-01-22T19:37:58.906Z,32.90
2019-01-22T19:40:28.207Z,33.00
2019-01-22T19:42:57.490Z,33.30
2019-01-22T19:45:32.536Z,33.10
2019-01-22T19:48:01.884Z,32.80
2019-01-22T19:50:31.473Z,32.60
2019-01-22T19:53:00.789Z,33.20
2019-01-22T19:55:30.077Z,33.50
2019-01-22T19:57:59.401Z,33.00
2019-01-22T20:00:31.230Z,32.90
2019-01-22T20:03:00.875Z,33.10
2019-01-22T20:05:30.436Z,32.90
2019-01-22T20:08:02.874Z,32.80
2019-01-22T20:10:32.183Z,33.00
2019-01-22T20:13:01.498Z,33.40
2019-01-22T20:15:30.788Z,34.00
2019-01-22T20:18:00.811Z,34.20
2019-01-22T20:20:30.190Z,33.80
2019-01-22T20:22:59.483Z,33.50
2019-01-22T20:25:28.801Z,33.10
2019-01-22T20:27:58.315Z,33.40
2019-01-22T20:30:32.630Z,34.80
2019-01-22T20:33:01.919Z,34.00
2019-01-22T20:35:31.240Z,34.00
2019-01-22T20:38:00.528Z,34.00
2019-01-22T20:40:29.869Z,33.30
2019-01-22T20:42:59.181Z,33.40
2019-01-22T20:45:29.645Z,33.40
2019-01-22T20:47:59.002Z,34.10
2019-01-22T20:50:28.351Z,34.00
2019-01-22T20:52:57.957Z,33.70
2019-01-22T20:55:27.435Z,32.60
2019-01-22T20:57:56.752Z,33.10
2019-01-22T21:00:26.396Z,32.70
2019-01-22T21:02:55.710Z,32.80
2019-01-22T21:05:29.656Z,32.80
2019-01-22T21:07:58.971Z,32.60
2019-01-22T21:10:30.185Z,32.80
2019-01-22T21:12:59.564Z,33.60
2019-01-22T21:15:28.989Z,33.50
2019-01-22T21:17:58.272Z,33.70
2019-01-22T21:20:30.288Z,33.90
2019-01-22T21:22:59.606Z,34.30
2019-01-22T21:25:28.904Z,34.40
2019-01-22T21:28:01.967Z,34.70
2019-01-22T21:30:36.843Z,34.70
2019-01-22T21:33:07.019Z,34.70
2019-01-22T21:35:36.327Z,34.60
2019-01-22T21:38:05.963Z,35.40
2019-01-22T21:40:35.263Z,35.90
2019-01-22T21:43:04.912Z,36.30
2019-01-22T21:45:34.461Z,35.50
2019-01-22T21:48:04.228Z,35.80
2019-01-22T21:50:33.610Z,36.10
2019-01-22T21:53:02.908Z,35.90
2019-01-22T21:55:32.483Z,36.10
2019-01-22T21:58:08.123Z,35.30
2019-01-22T22:00:32.875Z,35.60
2019-01-22T22:03:02.167Z,35.30
2019-01-22T22:05:31.729Z,35.50
2019-01-22T22:08:01.042Z,35.40
2019-01-22T22:10:30.343Z,35.60
2019-01-22T22:12:59.879Z,35.40
2019-01-22T22:15:29.170Z,35.30
2019-01-22T22:17:58.480Z,34.60
2019-01-22T22:20:27.776Z,34.60
2019-01-22T22:22:57.092Z,34.60
2019-01-22T22:25:26.384Z,61.80
2019-01-22T22:27:55.711Z,37.40
2019-01-22T22:30:30.187Z,34.80
2019-01-22T22:32:59.500Z,34.70
2019-01-22T22:35:28.800Z,34.30
2019-01-22T22:37:59.292Z,34.50
2019-01-22T22:40:28.810Z,34.70
2019-01-22T22:42:58.123Z,34.60
2019-01-22T22:45:27.694Z,34.50
2019-01-22T22:47:56.998Z,35.00
2019-01-22T22:50:32.980Z,34.50
2019-01-22T22:53:02.561Z,34.70
2019-01-22T22:55:31.943Z,35.40
2019-01-22T22:58:01.252Z,35.10
2019-01-22T23:00:51.155Z,34.60
2019-01-22T23:03:20.480Z,35.40
2019-01-22T23:05:49.771Z,34.80
2019-01-22T23:08:19.354Z,35.70
2019-01-22T23:10:48.664Z,35.80
2019-01-22T23:13:25.816Z,36.10
2019-01-22T23:15:55.171Z,35.90
2019-01-22T23:18:24.475Z,35.80
2019-01-22T23:20:53.785Z,36.10
2019-01-22T23:23:23.100Z,36.70
2019-01-22T23:25:52.386Z,36.50
2019-01-22T23:28:21.952Z,36.10
2019-01-22T23:30:51.565Z,36.00
2019-01-22T23:33:20.870Z,34.80
2019-01-22T23:35:50.158Z,35.20
2019-01-22T23:38:19.468Z,34.90
2019-01-22T23:40:49.077Z,36.00
2019-01-22T23:43:18.387Z,36.20
2019-01-22T23:45:47.690Z,36.60
2019-01-22T23:48:17.088Z,37.00
2019-01-22T23:50:46.378Z,36.60
2019-01-22T23:53:15.687Z,35.80
2019-01-22T23:55:44.991Z,35.50
2019-01-22T23:58:14.303Z,35.70
